sensor_id;sensor_type;location;lat;lon;timestamp;pressure;altitude;pressure_sealevel;temperature;humidity
58622;BME280;44389;51.578;5.456;2023-05-11T00:02:14;101302.56;;;10.91;100.00
58622;BME280;44389;51.578;5.456;2023-05-11T00:04:39;101296.47;;;10.89;100.00
58622;BME280;44389;51.578;5.456;2023-05-11T00:07:04;101300.75;;;10.88;100.00
58622;BME280;44389;51.578;5.456;2023-05-11T00:09:30;101293.78;;;10.85;100.00
58622;BME280;44389;51.578;5.456;2023-05-11T00:11:55;101295.53;;;10.86;100.00
58622;BME280;44389;51.578;5.456;2023-05-11T00:14:21;101285.13;;;10.83;100.00
58622;BME280;44389;51.578;5.456;2023-05-11T00:16:46;101285.13;;;10.83;100.00
58622;BME280;44389;51.578;5.456;2023-05-11T00:19:11;101282.41;;;10.80;100.00
58622;BME280;44389;51.578;5.456;2023-05-11T00:21:37;101276.22;;;10.75;100.00
58622;BME280;44389;51.578;5.456;2023-05-11T00:24:02;101276.22;;;10.75;100.00
58622;BME280;44389;51.578;5.456;2023-05-11T00:26:27;101275.31;;;10.73;100.00
58622;BME280;44389;51.578;5.456;2023-05-11T00:28:52;101282.28;;;10.76;100.00
58622;BME280;44389;51.578;5.456;2023-05-11T00:31:18;101282.28;;;10.76;100.00
58622;BME280;44389;51.578;5.456;2023-05-11T00:33:44;101286.44;;;10.72;100.00
58622;BME280;44389;51.578;5.456;2023-05-11T00:36:09;101295.00;;;10.71;100.00
58622;BME280;44389;51.578;5.456;2023-05-11T00:38:34;101296.63;;;10.69;100.00
58622;BME280;44389;51.578;5.456;2023-05-11T00:41:01;101294.00;;;10.67;100.00
58622;BME280;44389;51.578;5.456;2023-05-11T00:43:27;101299.19;;;10.69;100.00
58622;BME280;44389;51.578;5.456;2023-05-11T00:45:52;101294.03;;;10.69;100.00
58622;BME280;44389;51.578;5.456;2023-05-11T00:48:18;101294.03;;;10.69;100.00
58622;BME280;44389;51.578;5.456;2023-05-11T00:50:43;101294.03;;;10.69;100.00
58622;BME280;44389;51.578;5.456;2023-05-11T00:53:09;101294.16;;;10.72;100.00
58622;BME280;44389;51.578;5.456;2023-05-11T00:55:36;101294.16;;;10.72;100.00
58622;BME280;44389;51.578;5.456;2023-05-11T00:58:01;101300.25;;;10.74;100.00
58622;BME280;44389;51.578;5.456;2023-05-11T01:00:29;101303.00;;;10.79;100.00
58622;BME280;44389;51.578;5.456;2023-05-11T01:02:55;101308.16;;;10.79;100.00
58622;BME280;44389;51.578;5.456;2023-05-11T01:05:20;101298.66;;;10.78;100.00
58622;BME280;44389;51.578;5.456;2023-05-11T01:08:35;101301.28;;;10.79;100.00
58622;BME280;44389;51.578;5.456;2023-05-11T01:10:43;101298.59;;;10.76;100.00
58622;BME280;44389;51.578;5.456;2023-05-11T01:13:18;101299.66;;;10.81;100.00
58622;BME280;44389;51.578;5.456;2023-05-11T01:15:51;101304.00;;;10.82;100.00
58622;BME280;44389;51.578;5.456;2023-05-11T01:20:47;101307.44;;;10.83;100.00
58622;BME280;44389;51.578;5.456;2023-05-11T01:23:42;101313.59;;;10.86;100.00
58622;BME280;44389;51.578;5.456;2023-05-11T01:31:55;101311.72;;;10.82;100.00
58622;BME280;44389;51.578;5.456;2023-05-11T01:34:25;101309.19;;;10.84;100.00
58622;BME280;44389;51.578;5.456;2023-05-11T01:36:57;101305.75;;;10.83;100.00
58622;BME280;44389;51.578;5.456;2023-05-11T01:39:32;101312.63;;;10.84;100.00
58622;BME280;44389;51.578;5.456;2023-05-11T01:42:04;101315.22;;;10.84;100.00
58622;BME280;44389;51.578;5.456;2023-05-11T01:44:32;101310.06;;;10.84;100.00
58622;BME280;44389;51.578;5.456;2023-05-11T01:47:00;101308.25;;;10.82;100.00
58622;BME280;44389;51.578;5.456;2023-05-11T01:49:28;101313.50;;;10.83;100.00
58622;BME280;44389;51.578;5.456;2023-05-11T01:51:53;101305.94;;;10.90;100.00
58622;BME280;44389;51.578;5.456;2023-05-11T01:54:20;101305.63;;;10.80;100.00
58622;BME280;44389;51.578;5.456;2023-05-11T01:56:49;101309.75;;;10.75;100.00
58622;BME280;44389;51.578;5.456;2023-05-11T01:59:16;101309.63;;;10.72;100.00
58622;BME280;44389;51.578;5.456;2023-05-11T02:01:43;101308.69;;;10.70;100.00
58622;BME280;44389;51.578;5.456;2023-05-11T02:04:10;101312.09;;;10.69;100.00
58622;BME280;44389;51.578;5.456;2023-05-11T02:06:36;101312.09;;;10.69;100.00
58622;BME280;44389;51.578;5.456;2023-05-11T02:09:02;101312.94;;;10.68;100.00
58622;BME280;44389;51.578;5.456;2023-05-11T02:11:29;101321.34;;;10.64;100.00
58622;BME280;44389;51.578;5.456;2023-05-11T02:13:56;101312.81;;;10.65;100.00
58622;BME280;44389;51.578;5.456;2023-05-11T02:16:23;101315.22;;;10.60;100.00
58622;BME280;44389;51.578;5.456;2023-05-11T02:18:50;101312.56;;;10.59;100.00
58622;BME280;44389;51.578;5.456;2023-05-11T02:21:16;101303.16;;;10.59;100.00
58622;BME280;44389;51.578;5.456;2023-05-11T02:23:42;101311.47;;;10.52;100.00
58622;BME280;44389;51.578;5.456;2023-05-11T02:26:09;101306.22;;;10.49;100.00
58622;BME280;44389;51.578;5.456;2023-05-11T02:28:36;101301.41;;;10.58;100.00
58622;BME280;44389;51.578;5.456;2023-05-11T02:31:04;101308.06;;;10.30;100.00
58622;BME280;44389;51.578;5.456;2023-05-11T02:33:34;101310.34;;;10.23;100.00
58622;BME280;44389;51.578;5.456;2023-05-11T02:36:01;101296.22;;;10.13;100.00
58622;BME280;44389;51.578;5.456;2023-05-11T02:38:34;101302.97;;;10.09;100.00
58622;BME280;44389;51.578;5.456;2023-05-11T02:41:05;101305.44;;;10.06;100.00
58622;BME280;44389;51.578;5.456;2023-05-11T02:43:34;101304.63;;;10.07;100.00
58622;BME280;44389;51.578;5.456;2023-05-11T02:46:07;101308.72;;;10.02;100.00
58622;BME280;44389;51.578;5.456;2023-05-11T02:48:38;101315.59;;;10.03;100.00
58622;BME280;44389;51.578;5.456;2023-05-11T02:51:06;101306.88;;;9.99;100.00
58622;BME280;44389;51.578;5.456;2023-05-11T02:53:33;101309.16;;;9.92;100.00
58622;BME280;44389;51.578;5.456;2023-05-11T02:56:00;101306.34;;;9.85;100.00
58622;BME280;44389;51.578;5.456;2023-05-11T02:58:27;101303.72;;;9.84;100.00
58622;BME280;44389;51.578;5.456;2023-05-11T03:00:53;101304.56;;;9.84;100.00
58622;BME280;44389;51.578;5.456;2023-05-11T03:03:18;101306.09;;;9.79;100.00
58622;BME280;44389;51.578;5.456;2023-05-11T03:05:44;101307.84;;;9.80;100.00
58622;BME280;44389;51.578;5.456;2023-05-11T03:08:09;101311.13;;;9.76;100.00
58622;BME280;44389;51.578;5.456;2023-05-11T03:10:35;101311.78;;;9.72;100.00
58622;BME280;44389;51.578;5.456;2023-05-11T03:13:01;101308.59;;;9.56;100.00
58622;BME280;44389;51.578;5.456;2023-05-11T03:15:26;101319.78;;;9.57;100.00
58622;BME280;44389;51.578;5.456;2023-05-11T03:17:52;101311.25;;;9.58;100.00
58622;BME280;44389;51.578;5.456;2023-05-11T03:20:19;101312.88;;;9.56;100.00
58622;BME280;44389;51.578;5.456;2023-05-11T03:22:46;101317.00;;;9.52;100.00
58622;BME280;44389;51.578;5.456;2023-05-11T03:25:14;101320.66;;;9.58;100.00
58622;BME280;44389;51.578;5.456;2023-05-11T03:27:40;101308.59;;;9.56;100.00
58622;BME280;44389;51.578;5.456;2023-05-11T03:30:07;101316.13;;;9.52;100.00
58622;BME280;44389;51.578;5.456;2023-05-11T03:32:34;101308.47;;;9.53;100.00
58622;BME280;44389;51.578;5.456;2023-05-11T03:34:59;101311.84;;;9.52;100.00
58622;BME280;44389;51.578;5.456;2023-05-11T03:37:25;101299.75;;;9.50;100.00
58622;BME280;44389;51.578;5.456;2023-05-11T03:39:56;101308.91;;;9.43;100.00
58622;BME280;44389;51.578;5.456;2023-05-11T03:42:24;101316.25;;;9.55;100.00
58622;BME280;44389;51.578;5.456;2023-05-11T03:44:50;101312.06;;;9.57;100.00
58622;BME280;44389;51.578;5.456;2023-05-11T03:47:19;101309.91;;;9.68;100.00
58622;BME280;44389;51.578;5.456;2023-05-11T03:49:45;101315.50;;;9.58;100.00
58622;BME280;44389;51.578;5.456;2023-05-11T03:52:10;101310.03;;;9.50;100.00
58622;BME280;44389;51.578;5.456;2023-05-11T03:54:36;101315.13;;;9.48;100.00
58622;BME280;44389;51.578;5.456;2023-05-11T03:57:01;101314.25;;;9.48;100.00
58622;BME280;44389;51.578;5.456;2023-05-11T03:59:27;101316.31;;;9.56;100.00
58622;BME280;44389;51.578;5.456;2023-05-11T04:01:52;101316.47;;;9.60;100.00
58622;BME280;44389;51.578;5.456;2023-05-11T04:04:27;101314.00;;;9.63;100.00
58622;BME280;44389;51.578;5.456;2023-05-11T04:06:57;101315.88;;;9.67;100.00
58622;BME280;44389;51.578;5.456;2023-05-11T04:09:22;101309.22;;;9.72;100.00
58622;BME280;44389;51.578;5.456;2023-05-11T04:11:48;101310.97;;;9.73;100.00
58622;BME280;44389;51.578;5.456;2023-05-11T04:14:13;101311.38;;;9.61;100.00
58622;BME280;44389;51.578;5.456;2023-05-11T04:16:38;101313.19;;;9.64;100.00
58622;BME280;44389;51.578;5.456;2023-05-11T04:19:04;101315.75;;;9.64;100.00
58622;BME280;44389;51.578;5.456;2023-05-11T04:21:31;101314.13;;;9.66;100.00
58622;BME280;44389;51.578;5.456;2023-05-11T04:23:56;101308.25;;;9.68;100.00
58622;BME280;44389;51.578;5.456;2023-05-11T04:26:22;101317.19;;;9.78;100.00
58622;BME280;44389;51.578;5.456;2023-05-11T04:28:47;101317.44;;;9.84;100.00
58622;BME280;44389;51.578;5.456;2023-05-11T04:31:12;101313.34;;;9.89;100.00
58622;BME280;44389;51.578;5.456;2023-05-11T04:33:38;101320.38;;;9.94;100.00
58622;BME280;44389;51.578;5.456;2023-05-11T04:36:03;101313.84;;;10.02;100.00
58622;BME280;44389;51.578;5.456;2023-05-11T04:38:29;101310.56;;;10.06;100.00
58622;BME280;44389;51.578;5.456;2023-05-11T04:40:54;101318.59;;;10.14;100.00
58622;BME280;44389;51.578;5.456;2023-05-11T04:43:20;101317.84;;;10.16;100.00
58622;BME280;44389;51.578;5.456;2023-05-11T04:45:50;101313.81;;;10.23;100.00
58622;BME280;44389;51.578;5.456;2023-05-11T04:48:15;101325.06;;;10.25;100.00
58622;BME280;44389;51.578;5.456;2023-05-11T04:50:40;101317.47;;;10.30;100.00
58622;BME280;44389;51.578;5.456;2023-05-11T04:53:06;101315.72;;;10.29;100.00
58622;BME280;44389;51.578;5.456;2023-05-11T04:55:31;101320.06;;;10.30;100.00
58622;BME280;44389;51.578;5.456;2023-05-11T04:57:56;101320.97;;;10.30;100.00
58622;BME280;44389;51.578;5.456;2023-05-11T05:00:22;101331.38;;;10.33;100.00
58622;BME280;44389;51.578;5.456;2023-05-11T05:02:47;101342.72;;;10.37;100.00
58622;BME280;44389;51.578;5.456;2023-05-11T05:05:14;101342.81;;;10.40;100.00
58622;BME280;44389;51.578;5.456;2023-05-11T05:07:39;101333.81;;;10.51;100.00
58622;BME280;44389;51.578;5.456;2023-05-11T05:10:05;101343.28;;;10.52;100.00
58622;BME280;44389;51.578;5.456;2023-05-11T05:12:33;101345.44;;;10.64;100.00
58622;BME280;44389;51.578;5.456;2023-05-11T05:14:58;101342.22;;;10.70;100.00
58622;BME280;44389;51.578;5.456;2023-05-11T05:17:23;101349.22;;;10.74;100.00
58622;BME280;44389;51.578;5.456;2023-05-11T05:19:48;101355.38;;;10.78;100.00
58622;BME280;44389;51.578;5.456;2023-05-11T05:22:14;101354.63;;;10.80;100.00
58622;BME280;44389;51.578;5.456;2023-05-11T05:24:39;101353.84;;;10.83;100.00
58622;BME280;44389;51.578;5.456;2023-05-11T05:27:04;101356.59;;;10.87;100.00
58622;BME280;44389;51.578;5.456;2023-05-11T05:29:30;101354.94;;;10.90;100.00
58622;BME280;44389;51.578;5.456;2023-05-11T05:31:55;101353.41;;;10.95;100.00
58622;BME280;44389;51.578;5.456;2023-05-11T05:34:20;101356.06;;;10.96;100.00
58622;BME280;44389;51.578;5.456;2023-05-11T05:36:45;101359.63;;;11.00;100.00
58622;BME280;44389;51.578;5.456;2023-05-11T05:39:11;101364.94;;;11.04;100.00
58622;BME280;44389;51.578;5.456;2023-05-11T05:41:36;101355.63;;;11.08;100.00
58622;BME280;44389;51.578;5.456;2023-05-11T05:44:01;101367.81;;;11.12;100.00
58622;BME280;44389;51.578;5.456;2023-05-11T05:46:27;101368.81;;;11.16;100.00
58622;BME280;44389;51.578;5.456;2023-05-11T05:48:52;101369.78;;;11.19;100.00
58622;BME280;44389;51.578;5.456;2023-05-11T05:51:17;101368.06;;;11.20;100.00
58622;BME280;44389;51.578;5.456;2023-05-11T05:53:43;101375.06;;;11.23;100.00
58622;BME280;44389;51.578;5.456;2023-05-11T05:56:08;101372.56;;;11.26;100.00
58622;BME280;44389;51.578;5.456;2023-05-11T05:58:34;101378.66;;;11.28;100.00
58622;BME280;44389;51.578;5.456;2023-05-11T06:00:59;101376.19;;;11.31;100.00
58622;BME280;44389;51.578;5.456;2023-05-11T06:03:24;101385.03;;;11.38;100.00
58622;BME280;44389;51.578;5.456;2023-05-11T06:05:50;101387.03;;;11.46;100.00
58622;BME280;44389;51.578;5.456;2023-05-11T06:08:15;101384.63;;;11.51;100.00
58622;BME280;44389;51.578;5.456;2023-05-11T06:10:40;101379.78;;;11.60;100.00
58622;BME280;44389;51.578;5.456;2023-05-11T06:13:06;101387.69;;;11.65;100.00
58622;BME280;44389;51.578;5.456;2023-05-11T06:15:32;101383.66;;;11.73;100.00
58622;BME280;44389;51.578;5.456;2023-05-11T06:17:57;101386.44;;;11.79;100.00
58622;BME280;44389;51.578;5.456;2023-05-11T06:20:22;101384.06;;;11.85;100.00
58622;BME280;44389;51.578;5.456;2023-05-11T06:22:48;101388.59;;;11.93;100.00
58622;BME280;44389;51.578;5.456;2023-05-11T06:25:13;101390.63;;;12.01;100.00
58622;BME280;44389;51.578;5.456;2023-05-11T06:27:38;101392.56;;;12.07;100.00
58622;BME280;44389;51.578;5.456;2023-05-11T06:30:04;101392.72;;;12.13;100.00
58622;BME280;44389;51.578;5.456;2023-05-11T06:32:29;101398.91;;;12.18;100.00
58622;BME280;44389;51.578;5.456;2023-05-11T06:34:55;101389.06;;;12.34;100.00
58622;BME280;44389;51.578;5.456;2023-05-11T06:37:20;101394.44;;;12.40;100.00
58622;BME280;44389;51.578;5.456;2023-05-11T06:39:46;101394.50;;;12.43;100.00
58622;BME280;44389;51.578;5.456;2023-05-11T06:42:11;101394.63;;;12.46;100.00
58622;BME280;44389;51.578;5.456;2023-05-11T06:44:37;101396.47;;;12.50;100.00
58622;BME280;44389;51.578;5.456;2023-05-11T06:47:03;101392.88;;;12.45;100.00
58622;BME280;44389;51.578;5.456;2023-05-11T06:49:29;101402.22;;;12.42;100.00
58622;BME280;44389;51.578;5.456;2023-05-11T06:51:54;101396.97;;;12.39;100.00
58622;BME280;44389;51.578;5.456;2023-05-11T06:54:20;101401.22;;;12.37;100.00
58622;BME280;44389;51.578;5.456;2023-05-11T06:56:45;101407.13;;;12.32;100.00
58622;BME280;44389;51.578;5.456;2023-05-11T06:59:10;101404.50;;;12.31;100.00
58622;BME280;44389;51.578;5.456;2023-05-11T07:01:35;101403.72;;;12.33;100.00
58622;BME280;44389;51.578;5.456;2023-05-11T07:04:00;101405.56;;;12.38;100.00
58622;BME280;44389;51.578;5.456;2023-05-11T07:06:26;101403.94;;;12.41;100.00
58622;BME280;44389;51.578;5.456;2023-05-11T07:08:51;101404.84;;;12.43;100.00
58622;BME280;44389;51.578;5.456;2023-05-11T07:11:17;101411.03;;;12.48;100.00
58622;BME280;44389;51.578;5.456;2023-05-11T07:13:42;101407.75;;;12.52;100.00
58622;BME280;44389;51.578;5.456;2023-05-11T07:16:09;101415.50;;;12.52;100.00
58622;BME280;44389;51.578;5.456;2023-05-11T07:18:34;101414.47;;;12.47;100.00
58622;BME280;44389;51.578;5.456;2023-05-11T07:20:59;101422.03;;;12.41;100.00
58622;BME280;44389;51.578;5.456;2023-05-11T07:23:24;101417.53;;;12.35;100.00
58622;BME280;44389;51.578;5.456;2023-05-11T07:25:50;101414.81;;;12.31;100.00
58622;BME280;44389;51.578;5.456;2023-05-11T07:28:15;101416.59;;;12.32;100.00
58622;BME280;44389;51.578;5.456;2023-05-11T07:30:40;101419.31;;;12.37;100.00
58622;BME280;44389;51.578;5.456;2023-05-11T07:33:06;101419.66;;;12.47;100.00
58622;BME280;44389;51.578;5.456;2023-05-11T07:35:31;101426.88;;;12.58;100.00
58622;BME280;44389;51.578;5.456;2023-05-11T07:37:56;101426.19;;;12.65;100.00
58622;BME280;44389;51.578;5.456;2023-05-11T07:40:21;101424.75;;;12.73;100.00
58622;BME280;44389;51.578;5.456;2023-05-11T07:42:47;101419.13;;;12.88;100.00
58622;BME280;44389;51.578;5.456;2023-05-11T07:45:12;101429.06;;;13.03;100.00
58622;BME280;44389;51.578;5.456;2023-05-11T07:47:37;101429.50;;;13.18;100.00
58622;BME280;44389;51.578;5.456;2023-05-11T07:50:02;101422.94;;;13.31;100.00
58622;BME280;44389;51.578;5.456;2023-05-11T07:52:28;101424.06;;;13.40;100.00
58622;BME280;44389;51.578;5.456;2023-05-11T07:54:53;101430.38;;;13.49;100.00
58622;BME280;44389;51.578;5.456;2023-05-11T07:57:18;101425.31;;;13.54;100.00
58622;BME280;44389;51.578;5.456;2023-05-11T07:59:43;101429.75;;;13.58;100.00
58622;BME280;44389;51.578;5.456;2023-05-11T08:02:08;101433.44;;;13.68;100.00
58622;BME280;44389;51.578;5.456;2023-05-11T08:04:34;101430.16;;;13.74;100.00
58622;BME280;44389;51.578;5.456;2023-05-11T08:07:00;101432.81;;;13.77;100.00
58622;BME280;44389;51.578;5.456;2023-05-11T08:09:26;101436.28;;;13.77;100.00
58622;BME280;44389;51.578;5.456;2023-05-11T08:11:51;101438.59;;;13.66;100.00
58622;BME280;44389;51.578;5.456;2023-05-11T08:14:17;101440.03;;;13.57;100.00
58622;BME280;44389;51.578;5.456;2023-05-11T08:16:44;101440.50;;;13.40;100.00
58622;BME280;44389;51.578;5.456;2023-05-11T08:19:10;101434.16;;;13.32;100.00
58622;BME280;44389;51.578;5.456;2023-05-11T08:21:36;101441.88;;;13.29;100.00
58622;BME280;44389;51.578;5.456;2023-05-11T08:24:02;101439.16;;;13.26;100.00
58622;BME280;44389;51.578;5.456;2023-05-11T08:26:27;101442.50;;;13.22;100.00
58622;BME280;44389;51.578;5.456;2023-05-11T08:28:52;101442.44;;;13.18;100.00
58622;BME280;44389;51.578;5.456;2023-05-11T08:31:18;101435.53;;;13.19;100.00
58622;BME280;44389;51.578;5.456;2023-05-11T08:33:43;101438.28;;;13.24;100.00
58622;BME280;44389;51.578;5.456;2023-05-11T08:36:08;101436.69;;;13.29;100.00
58622;BME280;44389;51.578;5.456;2023-05-11T08:38:35;101442.16;;;13.38;100.00
58622;BME280;44389;51.578;5.456;2023-05-11T08:41:00;101444.16;;;13.48;100.00
58622;BME280;44389;51.578;5.456;2023-05-11T08:43:26;101443.53;;;13.57;100.00
58622;BME280;44389;51.578;5.456;2023-05-11T08:45:55;101438.59;;;13.66;100.00
58622;BME280;44389;51.578;5.456;2023-05-11T08:48:20;101435.34;;;13.74;100.00
58622;BME280;44389;51.578;5.456;2023-05-11T08:50:47;101439.63;;;13.73;100.00
58622;BME280;44389;51.578;5.456;2023-05-11T08:53:12;101440.13;;;13.58;100.00
58622;BME280;44389;51.578;5.456;2023-05-11T08:55:38;101440.31;;;13.36;100.00
58622;BME280;44389;51.578;5.456;2023-05-11T08:58:05;101444.13;;;13.18;100.00
58622;BME280;44389;51.578;5.456;2023-05-11T09:00:30;101437.72;;;13.05;100.00
58622;BME280;44389;51.578;5.456;2023-05-11T09:02:56;101441.19;;;13.04;100.00
58622;BME280;44389;51.578;5.456;2023-05-11T09:05:21;101451.69;;;13.10;100.00
58622;BME280;44389;51.578;5.456;2023-05-11T09:07:47;101443.22;;;13.16;100.00
58622;BME280;44389;51.578;5.456;2023-05-11T09:10:14;101454.59;;;13.21;100.00
58622;BME280;44389;51.578;5.456;2023-05-11T09:12:39;101450.53;;;13.31;100.00
58622;BME280;44389;51.578;5.456;2023-05-11T09:15:05;101453.66;;;13.48;100.00
58622;BME280;44389;51.578;5.456;2023-05-11T09:17:30;101451.53;;;13.66;100.00
58622;BME280;44389;51.578;5.456;2023-05-11T09:19:56;101450.47;;;13.92;100.00
58622;BME280;44389;51.578;5.456;2023-05-11T09:22:22;101458.09;;;14.21;100.00
58622;BME280;44389;51.578;5.456;2023-05-11T09:24:47;101457.72;;;14.42;100.00
58622;BME280;44389;51.578;5.456;2023-05-11T09:27:13;101455.69;;;14.65;100.00
58622;BME280;44389;51.578;5.456;2023-05-11T09:29:38;101450.16;;;14.88;100.00
58622;BME280;44389;51.578;5.456;2023-05-11T09:32:03;101460.34;;;15.20;100.00
58622;BME280;44389;51.578;5.456;2023-05-11T09:34:29;101458.94;;;15.37;100.00
58622;BME280;44389;51.578;5.456;2023-05-11T09:36:54;101450.16;;;15.32;100.00
58622;BME280;44389;51.578;5.456;2023-05-11T09:39:27;101448.41;;;15.31;100.00
58622;BME280;44389;51.578;5.456;2023-05-11T09:42:09;101453.56;;;15.28;100.00
58622;BME280;44389;51.578;5.456;2023-05-11T09:44:34;101450.47;;;15.47;100.00
58622;BME280;44389;51.578;5.456;2023-05-11T09:47:09;101447.31;;;15.64;100.00
58622;BME280;44389;51.578;5.456;2023-05-11T09:49:34;101451.94;;;15.80;100.00
58622;BME280;44389;51.578;5.456;2023-05-11T09:51:59;101452.19;;;15.93;100.00
58622;BME280;44389;51.578;5.456;2023-05-11T09:54:25;101448.00;;;16.01;100.00
58622;BME280;44389;51.578;5.456;2023-05-11T09:56:51;101448.16;;;16.10;100.00
58622;BME280;44389;51.578;5.456;2023-05-11T09:59:37;101453.38;;;16.13;100.00
58622;BME280;44389;51.578;5.456;2023-05-11T10:02:19;101462.81;;;16.07;100.00
58622;BME280;44389;51.578;5.456;2023-05-11T10:04:45;101462.97;;;16.18;100.00
58622;BME280;44389;51.578;5.456;2023-05-11T10:07:10;101457.06;;;16.28;100.00
58622;BME280;44389;51.578;5.456;2023-05-11T10:09:46;101451.63;;;16.12;100.00
58622;BME280;44389;51.578;5.456;2023-05-11T10:12:12;101455.53;;;15.86;100.00
58622;BME280;44389;51.578;5.456;2023-05-11T10:14:37;101454.19;;;15.62;100.00
58622;BME280;44389;51.578;5.456;2023-05-11T10:17:02;101456.72;;;15.57;100.00
58622;BME280;44389;51.578;5.456;2023-05-11T10:19:28;101454.19;;;15.60;100.00
58622;BME280;44389;51.578;5.456;2023-05-11T10:21:53;101445.28;;;15.93;100.00
58622;BME280;44389;51.578;5.456;2023-05-11T10:24:19;101451.97;;;16.34;100.00
58622;BME280;44389;51.578;5.456;2023-05-11T10:26:44;101461.22;;;16.15;100.00
58622;BME280;44389;51.578;5.456;2023-05-11T10:29:10;101459.94;;;15.90;100.00
58622;BME280;44389;51.578;5.456;2023-05-11T10:31:36;101461.28;;;15.69;100.00
58622;BME280;44389;51.578;5.456;2023-05-11T10:34:01;101455.84;;;15.57;100.00
58622;BME280;44389;51.578;5.456;2023-05-11T10:36:28;101452.22;;;15.48;100.00
58622;BME280;44389;51.578;5.456;2023-05-11T10:38:54;101460.66;;;15.35;100.00
58622;BME280;44389;51.578;5.456;2023-05-11T10:46:19;101463.19;;;14.91;100.00
58622;BME280;44389;51.578;5.456;2023-05-11T10:54:02;101456.91;;;16.16;100.00
58622;BME280;44389;51.578;5.456;2023-05-11T10:56:40;101449.38;;;16.33;100.00
58622;BME280;44389;51.578;5.456;2023-05-11T11:01:49;101451.34;;;16.48;100.00
58622;BME280;44389;51.578;5.456;2023-05-11T11:04:16;101444.94;;;16.88;100.00
58622;BME280;44389;51.578;5.456;2023-05-11T11:06:41;101444.50;;;17.19;95.02
58622;BME280;44389;51.578;5.456;2023-05-11T11:09:08;101441.88;;;17.17;95.10
58622;BME280;44389;51.578;5.456;2023-05-11T11:11:40;101447.84;;;17.08;100.00
58622;BME280;44389;51.578;5.456;2023-05-11T11:14:08;101445.13;;;16.99;97.06
58622;BME280;44389;51.578;5.456;2023-05-11T11:16:36;101441.66;;;17.00;98.84
58622;BME280;44389;51.578;5.456;2023-05-11T11:21:46;101443.75;;;18.20;89.18
58622;BME280;44389;51.578;5.456;2023-05-11T11:26:56;101434.91;;;19.86;91.46
58622;BME280;44389;51.578;5.456;2023-05-11T11:29:21;101432.19;;;20.60;93.01
58622;BME280;44389;51.578;5.456;2023-05-11T11:31:46;101435.63;;;20.88;79.20
58622;BME280;44389;51.578;5.456;2023-05-11T11:39:24;101427.06;;;19.97;82.68
58622;BME280;44389;51.578;5.456;2023-05-11T11:42:00;101427.00;;;19.77;82.62
58622;BME280;44389;51.578;5.456;2023-05-11T11:44:25;101428.72;;;19.53;75.80
58622;BME280;44389;51.578;5.456;2023-05-11T11:47:08;101432.09;;;19.12;80.50
58622;BME280;44389;51.578;5.456;2023-05-11T11:49:34;101430.34;;;19.07;82.32
58622;BME280;44389;51.578;5.456;2023-05-11T11:51:59;101428.72;;;19.42;87.60
58622;BME280;44389;51.578;5.456;2023-05-11T11:54:42;101426.19;;;19.96;75.54
58622;BME280;44389;51.578;5.456;2023-05-11T11:57:41;101421.81;;;19.98;77.48
58622;BME280;44389;51.578;5.456;2023-05-11T11:59:59;101433.16;;;20.11;81.60
58622;BME280;44389;51.578;5.456;2023-05-11T12:02:25;101427.91;;;20.33;84.59
58622;BME280;44389;51.578;5.456;2023-05-11T12:05:02;101429.53;;;20.83;83.73
58622;BME280;44389;51.578;5.456;2023-05-11T12:07:34;101430.25;;;21.18;82.09
58622;BME280;44389;51.578;5.456;2023-05-11T12:10:03;101433.91;;;20.89;65.10
58622;BME280;44389;51.578;5.456;2023-05-11T12:12:28;101434.03;;;20.27;74.93
58622;BME280;44389;51.578;5.456;2023-05-11T12:14:54;101434.84;;;19.60;70.22
58622;BME280;44389;51.578;5.456;2023-05-11T12:17:23;101430.34;;;19.06;76.92
58622;BME280;44389;51.578;5.456;2023-05-11T12:19:49;101430.28;;;18.95;84.30
58622;BME280;44389;51.578;5.456;2023-05-11T12:22:16;101423.38;;;19.08;77.96
58622;BME280;44389;51.578;5.456;2023-05-11T12:24:45;101419.94;;;19.17;83.50
58622;BME280;44389;51.578;5.456;2023-05-11T12:27:10;101414.72;;;19.26;78.54
58622;BME280;44389;51.578;5.456;2023-05-11T12:29:36;101418.25;;;19.34;77.30
58622;BME280;44389;51.578;5.456;2023-05-11T12:32:01;101413.91;;;19.41;82.17
58622;BME280;44389;51.578;5.456;2023-05-11T12:34:27;101416.53;;;19.55;77.55
58622;BME280;44389;51.578;5.456;2023-05-11T12:36:52;101415.72;;;19.90;79.37
58622;BME280;44389;51.578;5.456;2023-05-11T12:39:22;101410.47;;;20.29;78.87
58622;BME280;44389;51.578;5.456;2023-05-11T12:41:48;101414.72;;;20.71;81.50
58622;BME280;44389;51.578;5.456;2023-05-11T12:44:14;101419.72;;;21.27;73.26
58622;BME280;44389;51.578;5.456;2023-05-11T12:46:40;101420.28;;;21.77;75.36
58622;BME280;44389;51.578;5.456;2023-05-11T12:49:05;101420.81;;;22.18;75.38
58622;BME280;44389;51.578;5.456;2023-05-11T12:51:46;101411.69;;;22.56;77.01
58622;BME280;44389;51.578;5.456;2023-05-11T12:54:22;101404.31;;;22.86;64.62
58622;BME280;44389;51.578;5.456;2023-05-11T12:56:48;101416.25;;;22.40;68.82
58622;BME280;44389;51.578;5.456;2023-05-11T13:01:50;101405.44;;;21.71;76.93
58622;BME280;44389;51.578;5.456;2023-05-11T13:04:15;101405.59;;;21.54;75.00
58622;BME280;44389;51.578;5.456;2023-05-11T13:06:43;101398.63;;;21.44;69.39
58622;BME280;44389;51.578;5.456;2023-05-11T13:09:08;101403.94;;;21.40;74.09
58622;BME280;44389;51.578;5.456;2023-05-11T13:11:33;101403.06;;;21.37;74.91
58622;BME280;44389;51.578;5.456;2023-05-11T13:13:59;101398.75;;;21.26;69.80
58622;BME280;44389;51.578;5.456;2023-05-11T13:16:38;101397.06;;;21.17;69.27